createdAt,value
2022-08-03T00:00:29.901Z,48.82
2022-08-03T00:03:03.947Z,49.14
2022-08-03T00:05:33.360Z,49.20
2022-08-03T00:08:01.301Z,49.11
2022-08-03T00:10:29.184Z,49.36
2022-08-03T00:12:56.741Z,49.43
2022-08-03T00:15:24.346Z,49.44
2022-08-03T00:17:54.100Z,49.53
2022-08-03T00:20:22.195Z,49.48
2022-08-03T00:22:50.354Z,49.49
2022-08-03T00:25:18.471Z,49.82
2022-08-03T00:27:46.030Z,49.83
2022-08-03T00:30:17.000Z,49.84
2022-08-03T00:32:45.562Z,49.93
2022-08-03T00:35:36.367Z,49.85
2022-08-03T00:38:00.644Z,50.20
2022-08-03T00:40:28.756Z,50.10
2022-08-03T00:42:59.522Z,50.16
2022-08-03T00:45:30.081Z,50.19
2022-08-03T00:47:58.575Z,50.20
2022-08-03T00:50:30.522Z,50.27
2022-08-03T00:52:59.814Z,50.50
2022-08-03T00:55:27.797Z,50.50
2022-08-03T00:57:56.253Z,50.53
2022-08-03T01:00:30.254Z,50.66
2022-08-03T01:02:57.706Z,50.80
2022-08-03T01:05:25.860Z,50.84
2022-08-03T01:08:26.403Z,50.90
2022-08-03T01:11:15.922Z,50.96
2022-08-03T01:14:18.600Z,51.22
2022-08-03T01:17:19.028Z,51.28
2022-08-03T01:20:07.448Z,51.43
2022-08-03T01:23:06.966Z,51.53
2022-08-03T01:25:56.823Z,51.53
2022-08-03T01:28:50.219Z,51.64
2022-08-03T01:32:53.557Z,51.72
2022-08-03T01:34:41.314Z,51.95
2022-08-03T01:37:18.147Z,51.83
2022-08-03T01:39:46.433Z,51.87
2022-08-03T01:42:18.063Z,51.99
2022-08-03T01:44:57.352Z,51.83
2022-08-03T01:47:33.809Z,51.97
2022-08-03T01:50:03.155Z,52.03
2022-08-03T01:52:33.723Z,52.00
2022-08-03T01:55:03.296Z,52.04
2022-08-03T01:57:31.244Z,52.10
2022-08-03T02:00:01.814Z,52.35
2022-08-03T02:02:34.647Z,52.36
2022-08-03T02:05:05.927Z,52.49
2022-08-03T02:07:41.470Z,52.53
2022-08-03T02:10:11.539Z,52.52
2022-08-03T02:12:39.897Z,52.50
2022-08-03T02:15:07.812Z,52.60
2022-08-03T02:17:39.449Z,52.77
2022-08-03T02:23:12.440Z,52.81
2022-08-03T02:25:45.731Z,52.93
2022-08-03T02:31:21.981Z,52.95
2022-08-03T02:33:53.501Z,52.84
2022-08-03T02:36:27.051Z,53.11
2022-08-03T02:39:04.451Z,53.35
2022-08-03T02:41:41.751Z,53.32
2022-08-03T02:44:24.014Z,53.33
2022-08-03T02:46:56.073Z,53.39
2022-08-03T02:49:40.830Z,53.53
2022-08-03T02:52:15.982Z,53.57
2022-08-03T02:54:47.566Z,53.51
2022-08-03T02:57:16.643Z,53.65
2022-08-03T02:59:45.839Z,53.81
2022-08-03T03:02:20.997Z,53.78
2022-08-03T03:05:53.052Z,53.81
2022-08-03T03:07:51.872Z,54.01
2022-08-03T03:10:22.337Z,54.01
2022-08-03T03:12:56.492Z,54.12
2022-08-03T03:15:26.329Z,54.15
2022-08-03T03:17:54.954Z,54.16
2022-08-03T03:20:30.620Z,54.22
2022-08-03T03:22:59.998Z,54.14
2022-08-03T03:25:34.402Z,54.39
2022-08-03T03:28:03.045Z,54.35
2022-08-03T03:30:30.899Z,54.42
2022-08-03T03:32:59.082Z,54.49
2022-08-03T03:35:27.623Z,54.55
2022-08-03T03:37:55.429Z,54.51
2022-08-03T03:40:23.079Z,54.55
2022-08-03T03:42:53.786Z,54.58
2022-08-03T03:45:22.232Z,54.64
2022-08-03T03:47:50.163Z,54.82
2022-08-03T03:50:19.346Z,54.88
2022-08-03T03:52:46.922Z,54.96
2022-08-03T03:55:18.939Z,55.01
2022-08-03T03:57:46.521Z,54.93
2022-08-03T04:00:15.718Z,55.08
2022-08-03T04:02:44.330Z,55.08
2022-08-03T04:05:28.714Z,55.25
2022-08-03T04:08:15.416Z,55.23
2022-08-03T04:11:04.457Z,55.36
2022-08-03T04:13:38.229Z,55.26
2022-08-03T04:16:14.566Z,55.32
2022-08-03T04:18:48.299Z,55.15
2022-08-03T04:21:19.031Z,55.26
2022-08-03T04:23:49.918Z,55.30
2022-08-03T04:26:22.434Z,55.36
2022-08-03T04:28:51.850Z,55.35
2022-08-03T04:31:23.252Z,55.49
2022-08-03T04:33:52.699Z,55.41
2022-08-03T04:36:23.562Z,55.27
2022-08-03T04:39:16.374Z,55.15
2022-08-03T04:42:07.614Z,55.20
2022-08-03T04:44:37.777Z,55.42
2022-08-03T04:47:05.401Z,55.36
2022-08-03T04:49:34.945Z,55.22
2022-08-03T04:52:03.518Z,55.27
2022-08-03T04:54:33.436Z,55.21
2022-08-03T04:57:01.598Z,55.31
2022-08-03T04:59:32.113Z,55.21
2022-08-03T05:02:04.796Z,55.25
2022-08-03T05:04:35.015Z,55.31
2022-08-03T05:07:12.594Z,55.34
2022-08-03T05:09:50.186Z,55.44
2022-08-03T05:12:20.124Z,55.26
2022-08-03T05:14:47.661Z,55.53
2022-08-03T05:17:15.141Z,55.42
2022-08-03T05:19:42.734Z,55.26
2022-08-03T05:22:10.671Z,55.26
2022-08-03T05:24:38.242Z,55.34
2022-08-03T05:27:06.191Z,55.36
2022-08-03T05:29:33.971Z,55.22
2022-08-03T05:32:08.016Z,55.24
2022-08-03T05:34:36.001Z,55.01
2022-08-03T05:37:03.889Z,55.00
2022-08-03T05:39:31.484Z,54.87
2022-08-03T05:41:59.551Z,54.79
2022-08-03T05:44:27.105Z,54.84
2022-08-03T05:46:55.145Z,54.70
2022-08-03T05:49:23.245Z,54.52
2022-08-03T05:51:59.980Z,54.13
2022-08-03T05:54:56.897Z,53.95
2022-08-03T05:57:27.774Z,53.69
2022-08-03T05:59:58.672Z,53.49
2022-08-03T06:02:27.250Z,53.64
2022-08-03T06:04:54.791Z,53.55
2022-08-03T06:07:22.832Z,53.22
2022-08-03T06:10:36.157Z,53.12
2022-08-03T06:12:40.972Z,52.89
2022-08-03T06:15:11.556Z,52.78
2022-08-03T06:17:52.440Z,52.61
2022-08-03T06:20:21.147Z,52.12
2022-08-03T06:22:50.865Z,52.15
2022-08-03T06:25:21.194Z,52.08
2022-08-03T06:27:49.068Z,52.02
2022-08-03T06:30:21.071Z,52.02
2022-08-03T06:32:52.207Z,51.81
2022-08-03T06:35:20.492Z,51.98
2022-08-03T06:37:52.017Z,51.97
2022-08-03T06:40:31.376Z,51.91
2022-08-03T06:43:01.547Z,51.80
2022-08-03T06:45:31.678Z,51.38
2022-08-03T06:48:25.353Z,51.61
2022-08-03T06:50:52.838Z,51.25
2022-08-03T06:53:21.316Z,51.33
2022-08-03T06:55:54.192Z,51.43
2022-08-03T06:58:22.911Z,51.19
2022-08-03T07:00:50.449Z,51.21
2022-08-03T07:03:18.266Z,50.92
2022-08-03T07:05:47.109Z,50.79
2022-08-03T07:08:15.239Z,50.53
2022-08-03T07:10:43.409Z,50.63
2022-08-03T07:13:11.769Z,50.53
2022-08-03T07:15:55.843Z,50.24
2022-08-03T07:18:28.352Z,50.10
2022-08-03T07:20:58.530Z,50.13
2022-08-03T07:23:26.005Z,49.68
2022-08-03T07:25:53.444Z,49.51
2022-08-03T07:28:21.025Z,49.44
2022-08-03T07:30:48.583Z,49.38
2022-08-03T07:33:16.622Z,49.16
2022-08-03T07:35:44.105Z,49.02
2022-08-03T07:38:11.580Z,49.15
2022-08-03T07:40:42.094Z,48.75
2022-08-03T07:43:13.415Z,48.61
2022-08-03T07:45:40.986Z,48.22
2022-08-03T07:48:12.140Z,47.89
2022-08-03T07:50:40.731Z,48.11
2022-08-03T07:53:08.609Z,47.87
2022-08-03T07:55:36.160Z,47.98
2022-08-03T07:58:06.057Z,48.06
2022-08-03T08:00:34.114Z,47.89
2022-08-03T08:03:02.079Z,47.89
2022-08-03T08:05:29.754Z,47.51
2022-08-03T08:07:57.341Z,47.33
2022-08-03T08:10:25.386Z,47.10
2022-08-03T08:12:53.422Z,46.86
2022-08-03T08:15:20.955Z,46.40
2022-08-03T08:17:54.643Z,46.23
2022-08-03T08:20:37.904Z,46.00
2022-08-03T08:23:19.989Z,45.48
2022-08-03T08:25:56.585Z,45.62
2022-08-03T08:28:32.511Z,45.63
2022-08-03T08:31:02.178Z,45.55
2022-08-03T08:33:47.845Z,45.50
2022-08-03T08:36:18.408Z,45.29
2022-08-03T08:38:45.977Z,45.00
2022-08-03T08:41:14.838Z,44.86
2022-08-03T08:43:42.910Z,44.82
2022-08-03T08:46:12.962Z,44.55
2022-08-03T08:48:53.408Z,44.45
2022-08-03T08:51:22.306Z,44.37
2022-08-03T08:53:52.162Z,44.37
2022-08-03T08:56:25.615Z,44.24
2022-08-03T08:58:58.271Z,44.20
2022-08-03T09:01:26.541Z,44.19
2022-08-03T09:03:54.784Z,44.11
2022-08-03T09:06:24.419Z,43.72
2022-08-03T09:08:52.167Z,43.69
2022-08-03T09:11:51.654Z,43.53
2022-08-03T09:14:34.418Z,43.47
2022-08-03T09:17:05.209Z,43.32
2022-08-03T09:19:34.293Z,43.22
2022-08-03T09:22:18.678Z,43.04
2022-08-03T09:25:27.238Z,43.09
2022-08-03T09:27:54.964Z,42.99
2022-08-03T09:30:34.993Z,42.79
2022-08-03T09:33:08.330Z,42.59
2022-08-03T09:35:54.231Z,42.48
2022-08-03T09:38:26.020Z,41.85
2022-08-03T09:40:59.217Z,41.68
2022-08-03T09:43:45.861Z,41.65
2022-08-03T09:46:13.336Z,41.23
2022-08-03T09:48:40.797Z,41.10
2022-08-03T09:51:13.349Z,41.15
2022-08-03T09:53:57.007Z,41.13
2022-08-03T09:56:45.069Z,41.00
2022-08-03T09:59:22.875Z,40.54
2022-08-03T10:01:50.477Z,40.15
2022-08-03T10:04:18.257Z,40.12
2022-08-03T10:07:01.457Z,40.16
2022-08-03T10:09:29.091Z,39.77
2022-08-03T10:11:58.459Z,39.74
2022-08-03T10:14:30.307Z,39.50
2022-08-03T10:16:57.805Z,39.54
2022-08-03T10:19:25.765Z,39.47
2022-08-03T10:21:59.194Z,39.25
2022-08-03T10:24:29.850Z,39.17
2022-08-03T10:27:08.123Z,39.08
2022-08-03T10:29:42.899Z,39.23
2022-08-03T10:32:22.818Z,38.92
2022-08-03T10:34:52.172Z,39.02
2022-08-03T10:37:32.193Z,38.40
2022-08-03T10:40:03.005Z,38.13
2022-08-03T10:42:31.865Z,38.41
2022-08-03T10:45:13.911Z,38.17
2022-08-03T10:47:41.863Z,37.91
2022-08-03T10:50:10.256Z,37.73
2022-08-03T10:52:57.913Z,37.52
2022-08-03T10:55:56.866Z,37.93
2022-08-03T10:58:53.428Z,38.19
2022-08-03T11:01:58.868Z,38.13
2022-08-03T11:04:30.357Z,37.54
2022-08-03T11:07:17.477Z,37.28
2022-08-03T11:09:48.483Z,36.79
2022-08-03T11:12:33.521Z,36.17
2022-08-03T11:15:08.453Z,35.68
2022-08-03T11:17:46.378Z,35.72
2022-08-03T11:20:47.326Z,35.93
2022-08-03T11:23:17.241Z,35.92
2022-08-03T11:26:17.254Z,35.59
2022-08-03T11:28:47.597Z,35.09
2022-08-03T11:32:00.137Z,34.83
2022-08-03T11:34:18.778Z,34.84
2022-08-03T11:37:19.090Z,34.81
2022-08-03T11:39:48.648Z,34.78
2022-08-03T11:42:22.439Z,34.47
2022-08-03T11:44:51.291Z,34.12
2022-08-03T11:47:20.842Z,33.62
2022-08-03T11:49:52.635Z,33.72
2022-08-03T11:52:26.804Z,33.87
2022-08-03T11:54:57.132Z,33.34
2022-08-03T11:58:57.732Z,33.35
2022-08-03T12:00:30.657Z,33.17
2022-08-03T12:03:01.994Z,32.25
2022-08-03T12:05:52.260Z,31.57
2022-08-03T12:08:26.323Z,31.87
2022-08-03T12:10:58.559Z,32.13
2022-08-03T12:14:28.932Z,32.31
2022-08-03T12:16:23.266Z,32.24
2022-08-03T12:18:59.097Z,32.13
2022-08-03T12:21:27.887Z,31.97
2022-08-03T12:24:01.284Z,31.66
2022-08-03T12:26:31.163Z,31.66
2022-08-03T12:28:58.627Z,31.12
2022-08-03T12:31:26.210Z,30.69
2022-08-03T12:33:59.783Z,30.90
2022-08-03T12:36:28.822Z,30.78
2022-08-03T12:38:59.015Z,30.17
2022-08-03T12:41:36.984Z,29.52
2022-08-03T12:44:06.472Z,29.49
2022-08-03T12:46:43.945Z,29.11
2022-08-03T12:49:18.641Z,29.17
2022-08-03T12:51:46.205Z,28.97
2022-08-03T12:54:24.796Z,28.99
2022-08-03T12:57:10.415Z,28.69
2022-08-03T12:59:52.672Z,28.42
2022-08-03T13:02:24.550Z,28.34
2022-08-03T13:04:55.143Z,28.07
2022-08-03T13:07:23.392Z,27.93
2022-08-03T13:09:57.254Z,27.56
2022-08-03T13:12:28.641Z,27.70
2022-08-03T13:14:58.144Z,27.41
2022-08-03T13:17:26.638Z,27.42
2022-08-03T13:19:54.113Z,27.20
2022-08-03T13:22:28.908Z,26.91
2022-08-03T13:24:58.152Z,26.84
2022-08-03T13:28:03.094Z,26.50
2022-08-03T13:30:17.900Z,25.98
2022-08-03T13:33:00.416Z,25.97
2022-08-03T13:35:27.984Z,25.56
2022-08-03T13:37:55.542Z,24.38
2022-08-03T13:40:23.616Z,24.50
2022-08-03T13:42:58.349Z,24.43
2022-08-03T13:45:27.447Z,24.53
2022-08-03T13:47:54.948Z,24.41
2022-08-03T13:50:22.434Z,24.22
2022-08-03T13:52:49.930Z,24.03
2022-08-03T13:55:17.428Z,23.63
2022-08-03T13:58:05.235Z,23.52
2022-08-03T14:00:32.237Z,23.36
2022-08-03T14:03:06.626Z,23.46
2022-08-03T14:05:38.663Z,23.09
2022-08-03T14:08:07.242Z,23.12
2022-08-03T14:10:41.535Z,22.78
2022-08-03T14:13:12.511Z,22.67
2022-08-03T14:15:42.499Z,22.22
2022-08-03T14:18:29.190Z,22.02
2022-08-03T14:21:06.875Z,21.45
2022-08-03T14:23:37.883Z,21.65
2022-08-03T14:26:09.502Z,21.56
2022-08-03T14:28:37.019Z,21.09
2022-08-03T14:31:08.343Z,20.95
2022-08-03T14:33:52.665Z,20.94
2022-08-03T14:36:20.156Z,20.96
2022-08-03T14:38:48.015Z,20.25
2022-08-03T14:41:19.814Z,20.01
2022-08-03T14:44:01.472Z,19.95
2022-08-03T14:46:31.768Z,20.47
2022-08-03T14:50:30.973Z,19.96
2022-08-03T14:51:53.394Z,19.63
2022-08-03T14:54:22.811Z,19.57
2022-08-03T14:56:50.745Z,19.92
2022-08-03T14:59:18.213Z,19.81
2022-08-03T15:02:04.728Z,19.81
2022-08-03T15:04:33.149Z,19.80
2022-08-03T15:07:00.613Z,19.44
2022-08-03T15:09:28.065Z,19.07
2022-08-03T15:11:55.524Z,19.29
2022-08-03T15:14:28.474Z,19.35
2022-08-03T15:17:01.011Z,19.09
2022-08-03T15:20:00.931Z,18.57
2022-08-03T15:22:17.100Z,18.36
2022-08-03T15:24:48.181Z,18.49
2022-08-03T15:27:15.762Z,18.31
2022-08-03T15:30:08.785Z,18.11
2022-08-03T15:32:30.601Z,18.31
2022-08-03T15:34:58.043Z,18.16
2022-08-03T15:37:25.852Z,17.67
2022-08-03T15:39:59.487Z,17.75
2022-08-03T15:42:29.780Z,17.74
2022-08-03T15:44:57.318Z,18.00
2022-08-03T15:47:24.933Z,18.02
2022-08-03T15:49:52.500Z,17.66
2022-08-03T15:52:19.938Z,17.42
2022-08-03T15:54:47.435Z,17.63
2022-08-03T15:57:14.854Z,17.14
2022-08-03T15:59:42.368Z,17.66
2022-08-03T16:02:10.053Z,17.27
2022-08-03T16:04:37.454Z,17.20
2022-08-03T16:07:05.008Z,17.04
2022-08-03T16:09:43.153Z,16.79
2022-08-03T16:12:15.528Z,16.37
2022-08-03T16:14:52.932Z,16.42
2022-08-03T16:17:24.237Z,16.21
2022-08-03T16:19:54.746Z,16.23
2022-08-03T16:22:24.418Z,16.11
2022-08-03T16:24:54.041Z,15.85
2022-08-03T16:27:37.606Z,15.98
2022-08-03T16:30:11.780Z,15.72
2022-08-03T16:32:39.805Z,15.66
2022-08-03T16:35:08.054Z,15.58
2022-08-03T16:37:38.763Z,15.39
2022-08-03T16:40:09.311Z,15.18
2022-08-03T16:42:46.918Z,15.20
2022-08-03T16:45:14.565Z,15.21
2022-08-03T16:47:42.247Z,15.16
2022-08-03T16:50:17.173Z,14.97
2022-08-03T16:52:48.288Z,15.25
2022-08-03T16:55:18.511Z,15.15
2022-08-03T16:58:05.691Z,15.34
2022-08-03T17:00:42.018Z,15.31
2022-08-03T17:03:18.833Z,15.23
2022-08-03T17:05:49.745Z,15.10
2022-08-03T17:08:26.111Z,15.28
2022-08-03T17:10:56.217Z,15.16
2022-08-03T17:13:27.584Z,15.07
2022-08-03T17:16:09.401Z,15.19
2022-08-03T17:18:49.717Z,15.56
2022-08-03T17:21:22.372Z,15.43
2022-08-03T17:24:19.843Z,15.77
2022-08-03T17:26:51.028Z,15.52
2022-08-03T17:29:22.924Z,15.61
2022-08-03T17:31:52.397Z,15.82
2022-08-03T17:34:26.310Z,15.93
2022-08-03T17:37:04.857Z,16.17
2022-08-03T17:39:58.694Z,16.58
2022-08-03T17:42:30.242Z,16.83
2022-08-03T17:45:02.467Z,17.13
2022-08-03T17:47:41.145Z,17.51
2022-08-03T17:50:24.211Z,17.97
2022-08-03T17:53:23.845Z,18.22
2022-08-03T17:56:44.996Z,18.56
2022-08-03T17:59:13.882Z,18.94
2022-08-03T18:02:25.192Z,19.23
2022-08-03T18:05:16.520Z,19.74
2022-08-03T18:07:59.340Z,19.94
2022-08-03T18:10:49.955Z,20.34
2022-08-03T18:13:30.223Z,20.75
2022-08-03T18:16:06.840Z,20.99
2022-08-03T18:18:43.039Z,21.42
2022-08-03T18:21:16.871Z,21.72
2022-08-03T18:23:45.862Z,22.02
2022-08-03T18:26:18.767Z,22.14
2022-08-03T18:28:48.147Z,22.47
2022-08-03T18:32:00.512Z,22.76
2022-08-03T18:34:19.213Z,23.08
2022-08-03T18:36:56.364Z,23.31
2022-08-03T18:39:24.756Z,23.76
2022-08-03T18:41:52.327Z,24.03
2022-08-03T18:44:52.835Z,24.17
2022-08-03T18:47:25.556Z,24.52
2022-08-03T18:49:58.629Z,25.21
2022-08-03T18:52:37.462Z,25.59
2022-08-03T18:55:20.609Z,25.78
2022-08-03T18:58:05.586Z,25.86
2022-08-03T19:00:53.927Z,26.42
2022-08-03T19:03:25.130Z,26.65
2022-08-03T19:06:19.950Z,26.88
2022-08-03T19:09:02.896Z,27.48
2022-08-03T19:12:26.016Z,27.58
2022-08-03T19:14:42.458Z,27.89
2022-08-03T19:17:12.491Z,28.04
2022-08-03T19:19:45.375Z,28.19
2022-08-03T19:22:13.942Z,28.50
2022-08-03T19:24:45.915Z,28.69
2022-08-03T19:27:14.180Z,29.03
2022-08-03T19:32:35.186Z,29.86
2022-08-03T19:35:05.165Z,29.68
2022-08-03T19:37:44.935Z,30.15
2022-08-03T19:40:13.019Z,30.41
2022-08-03T19:42:45.166Z,30.93
2022-08-03T19:45:21.283Z,31.01
2022-08-03T19:47:56.581Z,31.33
2022-08-03T19:50:26.207Z,31.50
2022-08-03T19:52:56.838Z,31.33
2022-08-03T19:55:28.829Z,31.54
2022-08-03T19:58:04.103Z,31.63
2022-08-03T20:00:36.950Z,31.59
2022-08-03T20:03:07.153Z,31.60
2022-08-03T20:05:51.867Z,31.96
2022-08-03T20:08:22.054Z,32.13
2022-08-03T20:10:51.354Z,32.05
2022-08-03T20:13:20.345Z,32.03
2022-08-03T20:15:47.868Z,31.99
2022-08-03T20:18:20.924Z,32.12
2022-08-03T20:20:52.618Z,32.21
2022-08-03T20:23:20.862Z,32.23
2022-08-03T20:25:58.685Z,32.54
2022-08-03T20:31:32.658Z,32.62
2022-08-03T20:34:06.539Z,33.07
2022-08-03T20:36:33.999Z,33.39
2022-08-03T20:39:02.120Z,33.51
2022-08-03T20:41:35.572Z,33.73
2022-08-03T20:44:04.589Z,33.56
2022-08-03T20:49:21.346Z,33.77
2022-08-03T20:51:53.232Z,34.13
2022-08-03T20:54:30.703Z,34.10
2022-08-03T20:57:03.644Z,34.19
2022-08-03T20:59:46.922Z,34.35
2022-08-03T21:02:19.797Z,34.38
2022-08-03T21:05:08.449Z,34.35
2022-08-03T21:08:05.036Z,34.57
2022-08-03T21:10:40.710Z,34.76
2022-08-03T21:13:10.803Z,29.50
2022-08-03T21:13:12.720Z,32.50
2022-08-03T21:13:13.010Z,33.73
2022-08-03T21:13:28.765Z,34.90
2022-08-03T21:16:04.115Z,35.00
2022-08-03T21:18:50.544Z,35.10
2022-08-03T21:21:21.524Z,35.11
2022-08-03T21:23:52.530Z,35.24
2022-08-03T21:26:23.305Z,35.31
2022-08-03T21:28:52.674Z,35.42
2022-08-03T21:31:23.753Z,35.57
2022-08-03T21:33:59.559Z,35.56
2022-08-03T21:36:29.407Z,35.84
2022-08-03T21:38:58.350Z,35.93
2022-08-03T21:41:32.716Z,36.00
2022-08-03T21:44:02.381Z,35.95
2022-08-03T21:46:35.380Z,36.23
2022-08-03T21:50:07.322Z,36.35
2022-08-03T21:51:59.187Z,36.70
2022-08-03T21:54:40.148Z,36.48
2022-08-03T21:57:19.303Z,36.71
2022-08-03T21:59:55.802Z,36.89
2022-08-03T22:02:28.112Z,36.86
2022-08-03T22:04:59.018Z,37.10
2022-08-03T22:07:29.100Z,37.15
2022-08-03T22:09:58.270Z,37.27
2022-08-03T22:12:29.010Z,37.33
2022-08-03T22:15:01.231Z,37.56
2022-08-03T22:17:54.637Z,37.58
2022-08-03T22:20:22.779Z,37.71
2022-08-03T22:22:56.609Z,37.87
2022-08-03T22:25:29.247Z,37.92
2022-08-03T22:28:04.153Z,38.01
2022-08-03T22:30:33.026Z,38.13
2022-08-03T22:33:03.898Z,38.16
2022-08-03T22:35:47.147Z,38.33
2022-08-03T22:38:17.929Z,38.45
2022-08-03T22:40:48.353Z,38.53
2022-08-03T22:43:16.441Z,38.67
2022-08-03T22:46:08.999Z,38.74
2022-08-03T22:48:40.935Z,38.72
2022-08-03T22:51:10.097Z,38.80
2022-08-03T22:53:39.204Z,38.94
2022-08-03T22:56:06.696Z,39.03
2022-08-03T22:58:34.240Z,39.05
2022-08-03T23:01:05.936Z,39.24
2022-08-03T23:03:59.737Z,39.32
2022-08-03T23:06:28.211Z,39.53
2022-08-03T23:08:56.098Z,39.52
2022-08-03T23:11:24.840Z,39.61
2022-08-03T23:13:55.258Z,39.69
2022-08-03T23:16:29.058Z,39.84
2022-08-03T23:18:59.500Z,39.95
2022-08-03T23:21:52.968Z,40.09
2022-08-03T23:24:24.646Z,40.23
2022-08-03T23:26:58.676Z,40.35
2022-08-03T23:29:26.302Z,40.41
2022-08-03T23:31:55.236Z,40.58
2022-08-03T23:34:40.643Z,40.69
2022-08-03T23:37:12.468Z,40.90
2022-08-03T23:39:40.290Z,40.92
2022-08-03T23:42:09.775Z,40.96
2022-08-03T23:44:40.101Z,40.95
2022-08-03T23:47:07.659Z,41.15
2022-08-03T23:49:35.086Z,41.20
2022-08-03T23:52:05.281Z,41.44
2022-08-03T23:54:38.766Z,41.42
2022-08-03T23:57:40.147Z,41.59
